Birdie, Mississippi
Current Conditions -  °F | °C
As of 2:55 PM on Sunday 23 Nov 2014 (Local Time) from KCKM Reporting Station
Broken Clouds Broken Clouds  
Wind Chill: 63°   Ceiling: 2300
Heat Index: 63°   Visibility: 2.5mi
Dew Point: 63°   Wind: 10mph
Humidity: 100%   Direction: 220°SW
Pressure: 29.35"   Gusts: NA
Location:  34.3919°N, 90.4874°W
Report Text: KCKM 232055Z AUTO 22009KT 2 1/2SM FEW007 SCT012 BKN023 17/17 A2935 RMK AO1
Loading
Personal Weather Stations






























Interactive Weather Map New forecast layout! Learn more

10-Day Weather Forecast

Advertisements
Track Severe Weather on mobile